Time;durP1;ratioP1;P1;durP2;ratioP2;P2;SDS_P1;SDS_P2;PMS_P1;PMS_P2;Temp;Humidity;BMP_temperature;BMP_pressure;BME280_temperature;BME280_humidity;BME280_pressure;Samples;Min_cycle;Max_cycle;Signal;HPM_P1;HPM_P2
2020/12/02 00:01:34;;;;;;;18.63;11.85;;;0.80;99.90;;;;;;5061210;28;20212;-78
2020/12/02 00:04:09;;;;;;;29.45;12.05;;;0.90;99.90;;;;;;5067778;28;20180;-79
2020/12/02 00:06:37;;;;;;;16.83;8.95;;;0.90;99.90;;;;;;5065785;28;20192;-78
2020/12/02 00:09:08;;;;;;;15.98;12.60;;;1.00;99.90;;;;;;5064242;28;20204;-77
2020/12/02 00:11:35;;;;;;;18.48;14.25;;;1.10;99.90;;;;;;5067182;28;20219;-78
2020/12/02 00:14:06;;;;;;;14.73;9.07;;;1.20;99.90;;;;;;5065937;28;20193;-77
2020/12/02 00:16:33;;;;;;;22.25;12.30;;;1.20;99.90;;;;;;5070460;28;20184;-77
2020/12/02 00:19:02;;;;;;;23.88;14.93;;;1.10;99.90;;;;;;5075970;28;20192;-78
2020/12/02 00:21:32;;;;;;;13.95;9.02;;;1.00;99.90;;;;;;5074824;28;20223;-78
2020/12/02 00:24:00;;;;;;;21.92;14.32;;;0.80;99.90;;;;;;5072860;28;20666;-78
2020/12/02 00:26:28;;;;;;;13.18;10.70;;;0.80;99.90;;;;;;5067843;28;20192;-78
2020/12/02 00:28:56;;;;;;;19.15;11.30;;;0.70;99.90;;;;;;5070721;28;20196;-78
2020/12/02 00:31:24;;;;;;;20.48;10.95;;;0.60;99.90;;;;;;5073832;28;20273;-78
2020/12/02 00:33:51;;;;;;;12.65;10.10;;;0.50;99.90;;;;;;5069136;28;20208;-78
2020/12/02 00:36:19;;;;;;;16.80;10.40;;;0.50;99.90;;;;;;5067986;28;20173;-77
2020/12/02 00:38:47;;;;;;;13.25;10.15;;;0.50;99.90;;;;;;5066886;28;20161;-77
2020/12/02 00:41:14;;;;;;;19.45;12.27;;;0.50;99.90;;;;;;5068695;28;20220;-77
2020/12/02 00:43:41;;;;;;;9.85;8.60;;;0.50;99.90;;;;;;5065608;28;20169;-77
2020/12/02 00:46:10;;;;;;;15.57;12.10;;;0.40;99.90;;;;;;5065753;28;20203;-78
2020/12/02 00:48:37;;;;;;;19.67;11.50;;;0.40;99.90;;;;;;5068928;28;20187;-79
2020/12/02 00:51:06;;;;;;;20.17;12.48;;;0.30;99.90;;;;;;5068825;28;20213;-78
2020/12/02 00:53:35;;;;;;;16.65;9.32;;;0.30;99.90;;;;;;5061546;28;20199;-78
2020/12/02 00:56:06;;;;;;;23.67;11.50;;;0.20;99.90;;;;;;5062876;28;20197;-79
2020/12/02 00:58:48;;;;;;;18.75;10.35;;;0.10;99.90;;;;;;5065139;28;20200;-78
2020/12/02 01:01:19;;;;;;;16.15;10.27;;;0.10;99.90;;;;;;5064101;28;20266;-78
2020/12/02 01:03:48;;;;;;;12.60;11.30;;;0.10;99.90;;;;;;5065646;28;20195;-77
2020/12/02 01:06:16;;;;;;;21.45;10.60;;;0.10;99.90;;;;;;5063562;28;20185;-78
2020/12/02 01:08:46;;;;;;;25.85;13.60;;;0.00;99.90;;;;;;5063263;28;20260;-77
2020/12/02 01:11:19;;;;;;;20.17;12.73;;;0.00;99.90;;;;;;5068312;28;20213;-77
2020/12/02 01:13:48;;;;;;;14.98;8.32;;;0.00;99.90;;;;;;5068041;28;20267;-78
2020/12/02 01:16:29;;;;;;;8.63;6.28;;;-0.10;99.90;;;;;;5065623;28;20196;-78
2020/12/02 01:18:57;;;;;;;15.98;12.57;;;-0.10;99.90;;;;;;5064275;28;20197;-79
2020/12/02 01:21:32;;;;;;;13.73;9.88;;;-0.10;99.90;;;;;;5062001;28;20213;-77
2020/12/02 01:24:02;;;;;;;13.80;9.90;;;-0.10;99.90;;;;;;5062273;28;20188;-77
2020/12/02 01:26:36;;;;;;;21.13;8.75;;;-0.10;99.90;;;;;;5064301;28;20177;-79
2020/12/02 01:29:10;;;;;;;16.00;11.35;;;-0.20;99.90;;;;;;5065732;28;20605;-79
2020/12/02 01:31:38;;;;;;;14.88;10.07;;;-0.20;99.90;;;;;;5064094;28;20209;-77
2020/12/02 01:34:05;;;;;;;14.27;8.43;;;-0.20;99.90;;;;;;5067650;28;20192;-78
2020/12/02 01:36:49;;;;;;;16.05;10.93;;;-0.20;99.90;;;;;;5065151;28;20234;-78
2020/12/02 01:39:17;;;;;;;21.80;13.73;;;-0.30;99.90;;;;;;5079849;28;20185;-78
2020/12/02 01:41:45;;;;;;;14.75;8.48;;;-0.30;99.90;;;;;;5064744;28;20197;-77
2020/12/02 01:44:12;;;;;;;11.55;9.57;;;-0.30;99.90;;;;;;5066836;28;20189;-76
2020/12/02 01:46:48;;;;;;;18.30;10.63;;;-0.30;99.90;;;;;;5066593;28;20173;-77
2020/12/02 01:49:22;;;;;;;8.60;7.38;;;-0.40;99.90;;;;;;5065379;28;20203;-78
2020/12/02 01:52:03;;;;;;;16.30;9.90;;;-0.40;99.90;;;;;;5067149;28;20302;-80
2020/12/02 01:54:35;;;;;;;13.55;6.93;;;-0.40;99.90;;;;;;5066529;28;20203;-78
2020/12/02 01:57:11;;;;;;;17.15;11.82;;;-0.40;99.90;;;;;;5065724;28;20193;-78
2020/12/02 01:59:47;;;;;;;17.75;11.88;;;-0.50;99.90;;;;;;5068546;28;20192;-79
2020/12/02 02:02:22;;;;;;;13.88;11.38;;;-0.50;99.90;;;;;;5060891;28;20179;-77
2020/12/02 02:04:58;;;;;;;15.45;9.40;;;-0.50;99.90;;;;;;5083529;28;20214;-78
2020/12/02 02:07:27;;;;;;;24.15;12.50;;;-0.50;99.90;;;;;;5068009;28;20199;-77
2020/12/02 02:09:58;;;;;;;15.07;9.55;;;-0.50;99.90;;;;;;5060395;28;20284;-77
2020/12/02 02:12:55;;;;;;;10.45;8.48;;;-0.50;99.90;;;;;;5058704;28;20224;-77
2020/12/02 02:15:34;;;;;;;15.52;8.88;;;-0.40;99.90;;;;;;5058957;28;20188;-77
2020/12/02 02:18:07;;;;;;;20.08;10.95;;;-0.50;99.90;;;;;;5069370;28;20243;-78
2020/12/02 02:20:36;;;;;;;23.58;10.18;;;-0.50;99.90;;;;;;5069780;28;20235;-78
2020/12/02 02:23:04;;;;;;;18.13;11.98;;;-0.50;99.90;;;;;;5068659;28;20193;-78
2020/12/02 02:25:31;;;;;;;11.30;10.13;;;-0.50;99.90;;;;;;5069930;28;20187;-77
2020/12/02 02:28:00;;;;;;;17.90;10.25;;;-0.50;99.90;;;;;;5071980;28;20618;-78
2020/12/02 02:30:28;;;;;;;16.77;7.60;;;-0.50;99.90;;;;;;5070226;28;20212;-78
2020/12/02 02:32:55;;;;;;;23.60;10.93;;;-0.60;99.90;;;;;;5062413;28;20242;-78
2020/12/02 02:35:22;;;;;;;16.42;13.25;;;-0.60;99.90;;;;;;5062034;28;20185;-77
2020/12/02 02:37:50;;;;;;;24.63;13.15;;;-0.60;99.90;;;;;;5061581;28;20197;-78
2020/12/02 02:40:17;;;;;;;20.58;13.23;;;-0.60;99.90;;;;;;5061940;28;20232;-78
2020/12/02 02:42:46;;;;;;;20.63;9.57;;;-0.60;99.90;;;;;;5061957;28;20179;-78
2020/12/02 02:45:18;;;;;;;20.45;12.02;;;-0.70;99.90;;;;;;5060752;28;20197;-78
2020/12/02 02:47:46;;;;;;;14.77;9.50;;;-0.70;99.90;;;;;;5064070;28;20199;-78
2020/12/02 02:50:16;;;;;;;15.65;7.22;;;-0.70;99.90;;;;;;5064999;28;20707;-77
2020/12/02 02:52:45;;;;;;;19.15;11.02;;;-0.70;99.90;;;;;;5056513;28;20215;-77
2020/12/02 02:55:17;;;;;;;14.60;8.55;;;-0.80;99.90;;;;;;5066634;28;20192;-81
2020/12/02 02:57:44;;;;;;;22.08;9.75;;;-0.80;99.90;;;;;;5062875;28;20177;-77
2020/12/02 03:00:15;;;;;;;14.60;8.77;;;-0.80;99.90;;;;;;5064442;28;20223;-77
2020/12/02 03:02:45;;;;;;;17.85;9.68;;;-0.80;99.90;;;;;;5060332;28;20169;-76
2020/12/02 03:05:15;;;;;;;9.73;6.97;;;-0.70;99.90;;;;;;5065094;28;20239;-77
2020/12/02 03:07:43;;;;;;;15.18;9.60;;;-0.70;99.90;;;;;;5072796;28;20220;-77
2020/12/02 03:10:14;;;;;;;22.70;11.68;;;-0.70;99.90;;;;;;5065158;28;20217;-79
2020/12/02 03:12:42;;;;;;;19.98;11.13;;;-0.70;99.90;;;;;;5073695;28;20220;-79
2020/12/02 03:15:11;;;;;;;17.60;10.75;;;-0.70;99.90;;;;;;5073078;28;20189;-78
2020/12/02 03:17:39;;;;;;;15.13;11.63;;;-0.70;99.90;;;;;;5071476;28;20185;-80
2020/12/02 03:20:14;;;;;;;12.48;7.80;;;-0.60;99.90;;;;;;5066647;28;20612;-77
2020/12/02 03:22:43;;;;;;;17.17;8.27;;;-0.50;99.90;;;;;;5066075;28;20177;-78
2020/12/02 03:25:15;;;;;;;14.48;10.43;;;-0.50;99.90;;;;;;5067683;28;20197;-78
2020/12/02 03:27:42;;;;;;;15.32;10.73;;;-0.50;99.90;;;;;;5069569;28;20173;-79
2020/12/02 03:30:09;;;;;;;16.17;10.75;;;-0.50;99.90;;;;;;5071030;28;20212;-78
2020/12/02 03:32:36;;;;;;;34.92;19.98;;;-0.50;99.90;;;;;;5070572;28;20188;-78
2020/12/02 03:35:05;;;;;;;21.70;12.88;;;-0.50;99.90;;;;;;5070087;28;20189;-79
2020/12/02 03:37:32;;;;;;;26.55;15.25;;;-0.40;99.90;;;;;;5068312;28;20173;-77
2020/12/02 03:39:59;;;;;;;24.48;14.52;;;-0.50;99.90;;;;;;5069165;28;20239;-79
2020/12/02 03:42:26;;;;;;;23.30;15.50;;;-0.40;99.90;;;;;;5066582;28;20268;-77
2020/12/02 03:44:53;;;;;;;25.95;12.15;;;-0.40;99.90;;;;;;5068767;28;20219;-78
2020/12/02 03:47:21;;;;;;;23.17;13.85;;;-0.40;99.90;;;;;;5068295;28;20192;-78
2020/12/02 03:49:48;;;;;;;28.38;14.57;;;-0.40;99.90;;;;;;5068741;28;20193;-78
2020/12/02 03:52:16;;;;;;;18.98;13.32;;;-0.40;99.90;;;;;;5065385;28;20573;-77
2020/12/02 03:54:44;;;;;;;15.18;10.32;;;-0.50;99.90;;;;;;5070518;28;20173;-78
2020/12/02 03:57:11;;;;;;;19.77;15.93;;;-0.40;99.90;;;;;;5074651;28;20165;-78
2020/12/02 03:59:38;;;;;;;13.77;12.05;;;-0.40;99.90;;;;;;5076322;28;20189;-78
2020/12/02 04:02:05;;;;;;;22.75;12.57;;;-0.50;99.90;;;;;;5075227;28;20363;-77
2020/12/02 04:04:33;;;;;;;21.45;12.18;;;-0.40;99.90;;;;;;5073453;28;20219;-77
2020/12/02 04:07:00;;;;;;;19.02;12.90;;;-0.30;99.90;;;;;;5076272;28;20180;-77
2020/12/02 04:09:28;;;;;;;16.17;11.77;;;-0.40;99.90;;;;;;5077846;28;20298;-77
2020/12/02 04:11:56;;;;;;;20.27;10.35;;;-0.50;99.90;;;;;;5077750;28;20272;-77
2020/12/02 04:14:23;;;;;;;14.40;11.13;;;-0.50;99.90;;;;;;5077612;28;20196;-78
2020/12/02 04:16:50;;;;;;;15.27;9.05;;;-0.50;99.90;;;;;;5068480;28;20201;-77
2020/12/02 04:19:17;;;;;;;10.90;8.95;;;-0.50;99.90;;;;;;5073018;28;20203;-78
2020/12/02 04:21:45;;;;;;;21.88;12.15;;;-0.50;99.90;;;;;;5070122;28;20197;-78
2020/12/02 04:24:12;;;;;;;15.07;10.43;;;-0.40;99.90;;;;;;5066639;28;20181;-79
2020/12/02 04:26:41;;;;;;;24.25;11.88;;;-0.40;99.90;;;;;;5072756;28;20188;-78
2020/12/02 04:29:08;;;;;;;20.45;12.25;;;-0.50;99.90;;;;;;5073124;28;20176;-78
2020/12/02 04:31:35;;;;;;;18.80;14.32;;;-0.40;99.90;;;;;;5072839;28;20209;-78
2020/12/02 04:34:02;;;;;;;25.00;12.73;;;-0.30;99.90;;;;;;5074215;28;20195;-78
2020/12/02 04:36:29;;;;;;;16.33;11.90;;;-0.30;99.90;;;;;;5072405;28;20204;-80
2020/12/02 04:38:56;;;;;;;28.90;14.35;;;-0.30;99.90;;;;;;5074093;28;20235;-78
2020/12/02 04:41:29;;;;;;;25.00;11.93;;;-0.30;99.90;;;;;;5072176;28;20216;-78
2020/12/02 04:43:57;;;;;;;14.80;10.30;;;-0.20;99.90;;;;;;5074637;28;20177;-78
2020/12/02 04:46:28;;;;;;;30.35;12.90;;;0.00;99.90;;;;;;5073153;28;20244;-79
2020/12/02 04:49:03;;;;;;;22.35;15.32;;;0.00;99.90;;;;;;5072093;28;20183;-77
2020/12/02 04:51:30;;;;;;;22.23;13.02;;;0.00;99.90;;;;;;5072752;28;20234;-80
2020/12/02 04:53:59;;;;;;;17.55;11.05;;;0.00;99.90;;;;;;5071195;28;20169;-79
2020/12/02 04:56:28;;;;;;;28.08;15.05;;;0.10;99.90;;;;;;5070174;28;20169;-78
2020/12/02 04:58:57;;;;;;;19.52;12.85;;;0.20;99.90;;;;;;5071588;28;20188;-77
2020/12/02 05:01:28;;;;;;;15.00;10.65;;;0.10;99.90;;;;;;5071993;28;20205;-78
2020/12/02 05:03:59;;;;;;;16.95;8.60;;;0.10;99.90;;;;;;5065227;28;20180;-79
2020/12/02 05:06:36;;;;;;;26.15;12.50;;;0.00;99.90;;;;;;5062287;28;20243;-77
2020/12/02 05:09:06;;;;;;;21.83;13.40;;;0.00;99.90;;;;;;5059193;28;20181;-77
2020/12/02 05:11:33;;;;;;;21.60;14.50;;;0.00;99.90;;;;;;5057924;28;20205;-77
2020/12/02 05:14:04;;;;;;;17.15;12.55;;;0.00;99.90;;;;;;5062111;28;20179;-78
2020/12/02 05:16:32;;;;;;;20.52;11.50;;;0.00;99.90;;;;;;5067089;28;20184;-79
2020/12/02 05:19:01;;;;;;;22.05;15.27;;;0.00;99.90;;;;;;5065039;28;20192;-77
2020/12/02 05:21:40;;;;;;;24.33;12.00;;;0.10;99.90;;;;;;5089384;23;20270;-74
2020/12/02 05:24:10;;;;;;;19.33;12.23;;;0.10;99.90;;;;;;5056253;28;20230;-76
2020/12/02 05:26:41;;;;;;;18.52;14.02;;;0.10;99.90;;;;;;5052919;28;20176;-73
2020/12/02 05:29:25;;;;;;;25.02;14.05;;;0.10;99.90;;;;;;5052589;28;20169;-74
2020/12/02 05:32:03;;;;;;;14.68;10.27;;;0.10;99.90;;;;;;5052249;28;20674;-73
2020/12/02 05:34:32;;;;;;;21.50;13.40;;;0.20;99.90;;;;;;5052406;28;20177;-73
2020/12/02 05:37:01;;;;;;;13.98;9.05;;;0.10;99.90;;;;;;5052423;28;20193;-73
2020/12/02 05:39:41;;;;;;;18.33;11.68;;;0.10;99.90;;;;;;5052635;28;20616;-73
2020/12/02 05:42:21;;;;;;;18.30;13.68;;;0.20;99.90;;;;;;5053642;28;20698;-74
2020/12/02 05:44:56;;;;;;;19.65;9.68;;;0.30;99.90;;;;;;5053772;28;20173;-74
2020/12/02 05:47:23;;;;;;;15.52;10.82;;;0.40;99.90;;;;;;5055005;28;20642;-74
2020/12/02 05:49:54;;;;;;;24.88;14.98;;;0.30;99.90;;;;;;5055459;28;20201;-74
2020/12/02 05:52:25;;;;;;;27.45;14.93;;;0.30;99.90;;;;;;5053015;28;20287;-74
2020/12/02 05:54:56;;;;;;;36.00;13.85;;;0.30;99.90;;;;;;5052531;28;20177;-73
2020/12/02 05:57:23;;;;;;;20.40;14.20;;;0.20;99.90;;;;;;5069208;28;20187;-74
2020/12/02 05:59:56;;;;;;;17.02;12.52;;;0.20;99.90;;;;;;5055356;28;20189;-74
2020/12/02 06:02:24;;;;;;;30.13;17.90;;;0.20;99.90;;;;;;5054324;28;20213;-73
2020/12/02 06:04:54;;;;;;;24.73;13.93;;;0.20;99.90;;;;;;5055883;28;20595;-75
2020/12/02 06:07:22;;;;;;;23.33;17.35;;;0.20;99.90;;;;;;5056049;28;20181;-74
2020/12/02 06:09:51;;;;;;;19.92;14.23;;;0.30;99.90;;;;;;5056173;28;20219;-73
2020/12/02 06:12:21;;;;;;;27.77;16.52;;;0.30;99.90;;;;;;5056656;28;20212;-74
2020/12/02 06:14:49;;;;;;;23.17;13.35;;;0.30;99.90;;;;;;5060769;28;20558;-73
2020/12/02 06:17:28;;;;;;;28.20;12.60;;;0.30;99.90;;;;;;5057119;28;20180;-73
2020/12/02 06:19:55;;;;;;;29.15;16.08;;;0.20;99.90;;;;;;5056971;28;20189;-72
2020/12/02 06:22:49;;;;;;;24.40;13.57;;;0.10;99.90;;;;;;5056988;28;20205;-72
2020/12/02 06:25:49;;;;;;;23.55;12.10;;;0.10;99.90;;;;;;5056751;28;20173;-72
2020/12/02 06:28:39;;;;;;;21.25;15.93;;;0.00;99.90;;;;;;5056818;28;20284;-73
2020/12/02 06:31:11;;;;;;;17.40;11.07;;;0.10;99.90;;;;;;5051164;28;20248;-75
2020/12/02 06:33:41;;;;;;;23.63;13.07;;;0.10;99.90;;;;;;5055624;28;20188;-73
2020/12/02 06:36:18;;;;;;;19.00;13.98;;;0.00;99.90;;;;;;5054936;28;20185;-74
2020/12/02 06:38:46;;;;;;;14.30;10.63;;;-0.10;99.90;;;;;;5055199;28;20643;-74
2020/12/02 06:41:33;;;;;;;18.95;10.10;;;-0.10;99.90;;;;;;5054942;28;20215;-73
2020/12/02 06:44:45;;;;;;;12.82;9.82;;;-0.10;99.90;;;;;;5055436;28;20665;-73
2020/12/02 06:47:23;;;;;;;22.65;10.98;;;-0.10;99.90;;;;;;5054975;28;20181;-73
2020/12/02 06:50:02;;;;;;;23.25;15.27;;;-0.20;99.90;;;;;;5052482;28;20189;-74
2020/12/02 06:52:32;;;;;;;20.35;14.90;;;-0.40;99.90;;;;;;5035382;28;20201;-74
2020/12/02 06:55:04;;;;;;;24.88;15.73;;;-0.40;99.90;;;;;;5036009;28;20640;-74
2020/12/02 06:57:31;;;;;;;17.77;12.73;;;-0.50;99.90;;;;;;5037025;28;20599;-73
2020/12/02 07:00:00;;;;;;;15.23;10.80;;;-0.60;99.90;;;;;;5038110;28;20185;-73
2020/12/02 07:02:46;;;;;;;27.90;16.73;;;-0.60;99.90;;;;;;5039037;28;20208;-74
2020/12/02 07:05:20;;;;;;;25.60;12.68;;;-0.70;99.90;;;;;;5038300;28;20178;-74
2020/12/02 07:07:48;;;;;;;13.52;8.43;;;-0.70;99.90;;;;;;5037584;28;20177;-74
2020/12/02 07:10:17;;;;;;;17.02;13.25;;;-0.70;99.90;;;;;;5038077;28;20197;-75
2020/12/02 07:12:45;;;;;;;20.02;11.38;;;-0.80;99.90;;;;;;5039411;28;20219;-72
2020/12/02 07:15:14;;;;;;;21.75;14.68;;;-0.80;99.90;;;;;;5037788;28;20190;-74
2020/12/02 07:17:42;;;;;;;36.90;17.40;;;-0.70;99.90;;;;;;5037299;28;20189;-74
2020/12/02 07:20:13;;;;;;;22.30;12.48;;;-0.80;99.90;;;;;;5037881;28;20194;-75
2020/12/02 07:22:51;;;;;;;19.40;11.25;;;-0.80;99.90;;;;;;5039329;28;20189;-73
2020/12/02 07:25:23;;;;;;;19.90;12.70;;;-0.80;99.90;;;;;;5055693;28;20204;-74
2020/12/02 07:27:51;;;;;;;18.95;14.00;;;-0.80;99.90;;;;;;5059003;28;20172;-75
2020/12/02 07:30:30;;;;;;;21.98;12.02;;;-0.70;99.90;;;;;;5055647;28;20193;-74
2020/12/02 07:33:08;;;;;;;18.10;12.82;;;-0.70;99.90;;;;;;5046489;28;20236;-74
2020/12/02 07:35:35;;;;;;;21.65;12.77;;;-0.60;99.90;;;;;;5049153;28;20197;-74
2020/12/02 07:38:13;;;;;;;13.45;10.88;;;-0.60;99.90;;;;;;5055773;28;20186;-75
2020/12/02 07:40:41;;;;;;;21.90;12.52;;;-0.50;99.90;;;;;;5056545;28;20209;-73
2020/12/02 07:43:23;;;;;;;20.42;14.68;;;-0.40;99.90;;;;;;5055892;28;20248;-74
2020/12/02 07:46:08;;;;;;;33.17;11.98;;;-0.40;99.90;;;;;;5055510;28;20182;-74
2020/12/02 07:48:36;;;;;;;21.80;12.45;;;-0.30;99.90;;;;;;5054571;28;20244;-74
2020/12/02 07:51:09;;;;;;;19.20;13.98;;;-0.30;99.90;;;;;;5042252;28;20209;-74
2020/12/02 07:53:44;;;;;;;25.35;16.15;;;-0.30;99.90;;;;;;5037505;28;20224;-74
2020/12/02 07:56:16;;;;;;;23.58;14.40;;;-0.20;99.90;;;;;;5037498;28;20196;-73
2020/12/02 07:58:45;;;;;;;26.65;15.38;;;-0.20;99.90;;;;;;5033674;28;20264;-73
2020/12/02 08:01:24;;;;;;;26.48;15.75;;;-0.10;99.90;;;;;;5033216;28;20205;-74
2020/12/02 08:03:52;;;;;;;17.00;11.85;;;0.00;99.90;;;;;;5034100;28;20177;-74
2020/12/02 08:06:29;;;;;;;17.25;14.00;;;0.10;99.90;;;;;;5033819;28;20178;-74
2020/12/02 08:08:56;;;;;;;30.73;15.48;;;0.10;99.90;;;;;;5033532;28;20185;-73
2020/12/02 08:11:25;;;;;;;24.58;14.82;;;0.20;99.90;;;;;;5037778;28;20287;-73
2020/12/02 08:13:54;;;;;;;28.02;14.70;;;0.20;99.90;;;;;;5053057;28;20177;-73
2020/12/02 08:16:27;;;;;;;19.42;16.05;;;0.40;99.90;;;;;;5052944;28;20196;-73
2020/12/02 08:19:11;;;;;;;35.10;15.63;;;0.40;99.90;;;;;;5052722;28;20211;-74
2020/12/02 08:21:47;;;;;;;24.08;15.93;;;0.50;99.90;;;;;;5052567;28;20212;-74
2020/12/02 08:24:22;;;;;;;28.05;18.73;;;0.60;99.90;;;;;;5053800;28;20188;-74
2020/12/02 08:27:07;;;;;;;27.33;16.50;;;0.80;99.90;;;;;;5053130;28;20188;-74
2020/12/02 08:29:35;;;;;;;40.90;16.40;;;0.90;99.90;;;;;;5053083;28;20179;-74
2020/12/02 08:32:09;;;;;;;26.08;19.60;;;1.10;99.90;;;;;;5052819;28;20209;-75
2020/12/02 08:34:37;;;;;;;26.73;18.55;;;1.20;99.90;;;;;;5052987;28;20180;-74
2020/12/02 08:37:24;;;;;;;39.10;20.15;;;1.30;99.90;;;;;;5052847;28;20204;-74
2020/12/02 08:39:53;;;;;;;24.27;14.95;;;1.50;99.90;;;;;;5052991;28;20188;-75
2020/12/02 08:42:27;;;;;;;31.42;15.70;;;1.50;99.90;;;;;;5052486;28;20204;-74
2020/12/02 08:45:06;;;;;;;36.22;19.77;;;1.70;99.90;;;;;;5052617;28;20173;-74
2020/12/02 08:47:33;;;;;;;36.28;21.85;;;1.70;99.90;;;;;;5052726;28;20172;-74
2020/12/02 08:50:00;;;;;;;36.10;18.27;;;1.80;99.90;;;;;;5052297;28;20189;-75
2020/12/02 08:52:27;;;;;;;29.75;16.27;;;1.90;99.90;;;;;;5052860;28;20740;-77
2020/12/02 08:54:54;;;;;;;30.52;18.23;;;1.80;99.90;;;;;;5052496;28;20189;-74
2020/12/02 08:57:21;;;;;;;28.98;17.63;;;1.80;99.90;;;;;;5052374;28;20185;-74
2020/12/02 08:59:49;;;;;;;23.63;17.00;;;1.80;99.90;;;;;;5052466;28;20185;-75
2020/12/02 09:02:17;;;;;;;25.38;17.83;;;1.80;99.90;;;;;;5052376;28;20201;-75
2020/12/02 09:04:46;;;;;;;31.77;18.95;;;1.70;99.90;;;;;;5051836;28;20615;-76
2020/12/02 09:07:13;;;;;;;29.67;18.38;;;1.70;99.90;;;;;;5032089;28;20185;-75
2020/12/02 09:09:41;;;;;;;36.85;23.42;;;1.60;99.90;;;;;;5032422;28;20174;-75
2020/12/02 09:12:08;;;;;;;29.95;17.45;;;1.70;99.90;;;;;;5031604;28;20216;-74
2020/12/02 09:14:36;;;;;;;29.15;15.15;;;1.90;99.90;;;;;;5032701;28;20243;-74
2020/12/02 09:17:04;;;;;;;28.80;20.45;;;1.90;99.90;;;;;;5030979;28;20200;-75
2020/12/02 09:19:31;;;;;;;34.45;21.27;;;2.00;99.90;;;;;;5032327;28;20190;-74
2020/12/02 09:21:58;;;;;;;29.13;18.20;;;1.90;99.90;;;;;;5045902;28;20227;-75
2020/12/02 09:24:25;;;;;;;34.08;19.30;;;1.80;99.90;;;;;;5052587;28;20181;-75
2020/12/02 09:26:52;;;;;;;29.67;18.25;;;1.80;99.90;;;;;;5056756;28;20195;-74
2020/12/02 09:29:19;;;;;;;35.15;15.88;;;1.80;99.90;;;;;;5052527;28;20609;-75
2020/12/02 09:31:46;;;;;;;37.85;21.42;;;1.90;99.90;;;;;;5053415;28;20209;-74
2020/12/02 09:34:14;;;;;;;26.40;14.02;;;1.80;99.90;;;;;;5055327;28;20192;-75
2020/12/02 09:36:41;;;;;;;26.95;19.13;;;1.80;99.90;;;;;;5056900;28;20195;-75
2020/12/02 09:39:08;;;;;;;31.85;20.85;;;1.80;99.90;;;;;;5055052;28;20197;-75
2020/12/02 09:41:48;;;;;;;34.50;18.73;;;2.00;99.90;;;;;;5055678;28;20208;-75
2020/12/02 09:44:34;;;;;;;30.98;15.45;;;2.20;99.90;;;;;;5056138;28;20701;-74
2020/12/02 09:47:06;;;;;;;36.05;20.38;;;2.30;99.90;;;;;;5054252;28;20694;-75
2020/12/02 09:49:34;;;;;;;26.10;16.13;;;2.40;99.90;;;;;;5055682;28;20674;-75
2020/12/02 09:52:27;;;;;;;30.55;17.27;;;2.50;99.90;;;;;;5055803;28;20683;-74
2020/12/02 09:54:54;;;;;;;28.30;16.05;;;2.60;99.90;;;;;;5055879;28;20173;-75
2020/12/02 09:57:24;;;;;;;25.92;16.80;;;2.70;99.90;;;;;;5044647;28;20180;-76
2020/12/02 09:59:52;;;;;;;32.60;22.40;;;2.80;99.90;;;;;;5055542;28;20252;-75
2020/12/02 10:02:38;;;;;;;40.42;19.65;;;2.80;99.90;;;;;;5055397;28;20212;-75
2020/12/02 10:05:31;;;;;;;31.25;20.23;;;2.80;99.90;;;;;;5055166;28;20184;-76
2020/12/02 10:08:06;;;;;;;36.40;20.70;;;2.90;99.90;;;;;;5055830;28;20184;-74
2020/12/02 10:10:45;;;;;;;25.27;16.90;;;2.90;99.90;;;;;;5054013;28;20702;-75
2020/12/02 10:13:55;;;;;;;34.17;19.52;;;2.90;99.90;;;;;;5055252;28;20655;-74
2020/12/02 10:16:31;;;;;;;23.17;15.32;;;2.90;99.90;;;;;;5040454;28;20781;-75
2020/12/02 10:19:28;;;;;;;27.13;17.80;;;2.90;99.90;;;;;;5055762;28;20553;-76
2020/12/02 10:22:09;;;;;;;32.38;20.55;;;2.90;99.90;;;;;;5057798;28;20224;-76
2020/12/02 10:24:55;;;;;;;35.10;22.73;;;2.90;99.90;;;;;;5055207;28;20640;-75
2020/12/02 10:27:49;;;;;;;36.72;23.10;;;2.90;99.90;;;;;;5055210;28;20260;-76
2020/12/02 10:30:22;;;;;;;30.85;19.70;;;2.90;99.90;;;;;;5054762;28;20543;-77
2020/12/02 10:33:28;;;;;;;31.27;22.35;;;3.00;99.90;;;;;;5053550;28;20197;-74
2020/12/02 10:35:57;;;;;;;29.15;18.90;;;2.90;99.90;;;;;;5024300;28;20219;-75
2020/12/02 10:38:32;;;;;;;28.30;19.60;;;2.90;99.90;;;;;;5054759;28;20215;-75
2020/12/02 10:41:11;;;;;;;30.27;21.27;;;2.90;99.90;;;;;;5054519;28;20204;-76
2020/12/02 10:43:46;;;;;;;32.72;18.48;;;2.90;99.90;;;;;;5054439;28;20196;-74
2020/12/02 10:46:24;;;;;;;34.05;19.52;;;2.80;99.90;;;;;;5054528;28;20172;-74
2020/12/02 10:48:59;;;;;;;34.08;22.08;;;2.90;99.90;;;;;;5054808;28;20177;-75
2020/12/02 10:51:35;;;;;;;36.28;16.45;;;3.10;99.90;;;;;;5053300;28;20303;-75
2020/12/02 10:54:12;;;;;;;35.05;22.63;;;3.10;99.90;;;;;;5054655;28;20211;-74
2020/12/02 10:56:42;;;;;;;29.90;21.60;;;3.20;99.90;;;;;;5054659;28;20184;-74
2020/12/02 10:59:13;;;;;;;29.42;18.25;;;3.30;99.90;;;;;;5054928;28;20188;-75
2020/12/02 11:01:42;;;;;;;35.22;20.65;;;3.40;99.90;;;;;;5056727;28;20655;-75
2020/12/02 11:04:15;;;;;;;42.13;23.90;;;3.40;99.90;;;;;;5055976;28;20184;-74
2020/12/02 11:06:57;;;;;;;35.63;22.25;;;3.40;99.90;;;;;;5054053;28;20173;-77
2020/12/02 11:09:48;;;;;;;23.27;16.42;;;3.40;1.00;;;;;;5054742;28;20176;-74
2020/12/02 11:12:49;;;;;;;41.83;21.38;;;3.30;1.00;;;;;;5054031;28;20220;-74
2020/12/02 11:15:43;;;;;;;32.63;17.80;;;3.20;1.00;;;;;;5054453;28;20713;-74
2020/12/02 11:18:39;;;;;;;35.58;19.65;;;3.30;1.00;;;;;;5052833;28;20185;-74
2020/12/02 11:21:22;;;;;;;35.97;20.00;;;2.90;98.00;;;;;;5058358;23;20226;-80
2020/12/02 11:24:22;;;;;;;27.00;18.77;;;3.00;8.80;;;;;;4999467;28;20193;-80
2020/12/02 11:26:51;;;;;;;31.80;20.35;;;2.70;99.90;;;;;;5028100;28;20289;-80
2020/12/02 11:29:20;;;;;;;39.15;22.80;;;2.60;99.90;;;;;;5027353;28;20663;-79
2020/12/02 11:32:26;;;;;;;43.22;24.88;;;2.60;99.90;;;;;;5025308;28;20229;-80
2020/12/02 11:35:12;;;;;;;31.73;20.15;;;2.60;99.90;;;;;;5025833;28;20216;-81
2020/12/02 11:37:50;;;;;;;30.25;22.63;;;2.70;1.00;;;;;;5028951;28;20189;-80
2020/12/02 11:40:21;;;;;;;29.70;18.80;;;2.80;1.00;;;;;;5029464;28;20181;-80
2020/12/02 11:42:58;;;;;;;30.73;19.10;;;2.90;16.70;;;;;;5029192;28;20186;-80
2020/12/02 11:45:29;;;;;;;26.35;16.85;;;3.10;1.00;;;;;;5030004;28;20632;-79
2020/12/02 11:48:06;;;;;;;27.60;16.90;;;3.30;1.00;;;;;;5029841;28;20174;-80
2020/12/02 11:50:36;;;;;;;29.25;16.15;;;3.50;1.00;;;;;;5028348;28;20183;-79
2020/12/02 11:53:22;;;;;;;31.98;19.48;;;3.60;1.00;;;;;;5026977;28;20216;-80
2020/12/02 11:55:52;;;;;;;26.45;16.23;;;3.60;1.00;;;;;;5031376;28;20233;-78
2020/12/02 11:58:20;;;;;;;32.03;19.95;;;3.70;1.00;;;;;;5028708;28;20596;-81
2020/12/02 12:00:55;;;;;;;23.33;17.55;;;3.70;1.00;;;;;;5031583;28;20297;-79
2020/12/02 12:03:31;;;;;;;26.90;17.48;;;3.90;1.00;;;;;;5034490;28;20204;-79
2020/12/02 12:06:05;;;;;;;35.50;18.45;;;3.90;1.00;;;;;;5035522;28;20465;-80
2020/12/02 12:08:45;;;;;;;28.80;15.32;;;3.90;99.90;;;;;;5036537;28;20197;-79
2020/12/02 12:11:26;;;;;;;24.95;19.65;;;3.90;99.90;;;;;;5034555;28;20205;-79
2020/12/02 12:14:01;;;;;;;32.30;17.15;;;3.80;99.90;;;;;;5031631;28;20226;-79
2020/12/02 12:16:37;;;;;;;26.30;15.27;;;3.80;99.90;;;;;;5031060;28;20198;-80
2020/12/02 12:19:14;;;;;;;27.77;18.50;;;3.80;99.90;;;;;;5031149;28;20562;-80
2020/12/02 12:21:52;;;;;;;34.97;20.00;;;3.80;99.90;;;;;;5032665;28;20290;-79
2020/12/02 12:24:19;;;;;;;23.08;15.68;;;3.80;1.00;;;;;;5032871;28;20257;-80
2020/12/02 12:26:52;;;;;;;29.60;16.55;;;3.80;99.90;;;;;;5031385;28;20190;-79
2020/12/02 12:29:21;;;;;;;27.13;15.50;;;3.80;99.90;;;;;;5022747;28;20569;-81
2020/12/02 12:31:53;;;;;;;32.33;17.58;;;3.80;99.90;;;;;;5011805;28;20215;-82
2020/12/02 12:34:29;;;;;;;20.88;15.35;;;3.80;99.90;;;;;;5012825;28;20218;-80
2020/12/02 12:37:01;;;;;;;28.80;17.08;;;3.80;99.90;;;;;;5012803;28;20193;-79
2020/12/02 12:39:35;;;;;;;22.75;14.98;;;3.80;99.90;;;;;;5010822;28;20190;-79
2020/12/02 12:42:04;;;;;;;26.50;16.75;;;3.60;99.90;;;;;;5011049;28;20293;-80
2020/12/02 12:44:34;;;;;;;33.50;15.15;;;3.50;99.90;;;;;;5011071;28;20198;-81
2020/12/02 12:47:22;;;;;;;27.88;19.85;;;3.60;99.90;;;;;;5012033;28;20198;-80
2020/12/02 12:49:50;;;;;;;23.88;15.07;;;3.60;99.90;;;;;;5011057;28;20175;-81
2020/12/02 12:52:19;;;;;;;25.92;13.85;;;3.70;1.00;;;;;;5004960;28;20219;-80
2020/12/02 12:54:47;;;;;;;25.77;16.50;;;3.80;99.90;;;;;;5000562;28;20211;-81
2020/12/02 12:57:16;;;;;;;25.38;13.48;;;3.80;1.00;;;;;;5002716;28;20183;-82
2020/12/02 12:59:45;;;;;;;34.28;16.10;;;3.80;99.90;;;;;;5002090;28;20183;-81
2020/12/02 13:02:20;;;;;;;26.48;15.25;;;3.80;99.90;;;;;;5003171;28;20206;-81
2020/12/02 13:04:48;;;;;;;20.83;13.55;;;3.80;1.00;;;;;;5006848;28;20669;-81